Time;durP1;ratioP1;P1;durP2;ratioP2;P2;SDS_P1;SDS_P2;PMS_P1;PMS_P2;Temp;Humidity;BMP_temperature;BMP_pressure;BME280_temperature;BME280_humidity;BME280_pressure;Samples;Min_cycle;Max_cycle;Signal;HPM_P1;HPM_P2
2022/03/17 00:00:57;;;;;;;32.20;17.73;;;;;;;13.54;63.34;101653.91;5089110;28;20066;-75
2022/03/17 00:03:23;;;;;;;33.30;19.70;;;;;;;13.51;63.25;101652.72;5087184;28;20496;-72
2022/03/17 00:05:50;;;;;;;37.97;18.20;;;;;;;13.49;63.28;101649.53;5086786;28;20051;-77
2022/03/17 00:08:16;;;;;;;34.30;17.50;;;;;;;13.49;63.54;101652.31;5100774;28;20483;-74
2022/03/17 00:10:43;;;;;;;33.35;18.48;;;;;;;13.52;63.42;101659.88;5089197;28;20719;-73
2022/03/17 00:13:11;;;;;;;32.63;19.20;;;;;;;13.47;63.47;101665.81;5091862;28;20058;-73
2022/03/17 00:15:40;;;;;;;36.40;21.05;;;;;;;13.51;63.68;101654.69;5087350;28;20127;-72
2022/03/17 00:18:07;;;;;;;34.58;20.05;;;;;;;13.51;63.55;101658.28;5088874;28;20570;-73
2022/03/17 00:20:34;;;;;;;29.88;16.83;;;;;;;13.45;63.92;101647.94;5088102;28;20084;-74
2022/03/17 00:23:01;;;;;;;37.42;20.52;;;;;;;13.50;63.24;101661.47;5086126;28;20052;-74
2022/03/17 00:25:29;;;;;;;31.80;16.50;;;;;;;13.50;63.25;101664.25;5088349;28;20044;-73
2022/03/17 00:27:56;;;;;;;29.75;18.08;;;;;;;13.53;63.18;101664.22;5094188;28;20052;-73
2022/03/17 00:30:23;;;;;;;32.95;19.48;;;;;;;13.52;63.22;101659.06;5094930;28;20071;-75
2022/03/17 00:32:50;;;;;;;35.65;20.02;;;;;;;13.54;63.38;101663.06;5092738;28;20576;-73
2022/03/17 00:38:07;;;;;;;38.47;19.70;;;;;;;13.57;62.69;101676.16;5090327;28;20135;-74
2022/03/17 00:40:39;;;;;;;36.80;19.48;;;;;;;13.59;63.18;101670.19;5087976;28;20064;-73
2022/03/17 00:43:06;;;;;;;32.60;19.15;;;;;;;13.59;63.03;101665.44;5096655;28;20159;-74
2022/03/17 00:45:33;;;;;;;34.80;18.33;;;;;;;13.55;63.71;101672.19;5083260;28;20488;-73
2022/03/17 00:48:00;;;;;;;35.20;17.77;;;;;;;13.57;63.96;101675.38;5085636;28;20128;-76
2022/03/17 00:50:26;;;;;;;24.80;12.57;;;;;;;13.53;64.29;101669.78;5090869;28;20050;-74
2022/03/17 00:52:53;;;;;;;36.13;18.98;;;;;;;13.60;63.78;101674.59;5084775;28;20105;-72
2022/03/17 00:55:21;;;;;;;35.17;19.13;;;;;;;13.62;63.71;101675.78;5079095;28;20052;-74
2022/03/17 00:57:48;;;;;;;31.48;14.98;;;;;;;13.57;63.93;101670.59;5087946;28;20135;-74
2022/03/17 01:00:16;;;;;;;34.50;19.58;;;;;;;13.57;64.04;101673.38;5087238;28;20052;-72
2022/03/17 01:02:44;;;;;;;35.30;21.90;;;;;;;13.57;63.63;101665.03;5085496;28;20163;-75
2022/03/17 01:05:11;;;;;;;34.42;19.60;;;;;;;13.56;63.86;101671.78;5090190;28;20504;-73
2022/03/17 01:07:38;;;;;;;32.97;17.27;;;;;;;13.52;64.10;101665.44;5090857;28;20134;-75
2022/03/17 01:10:07;;;;;;;35.28;17.83;;;;;;;13.54;63.71;101660.28;5092139;28;20040;-74
2022/03/17 01:12:34;;;;;;;34.45;18.35;;;;;;;13.51;63.63;101658.28;5087632;28;20576;-74
2022/03/17 01:15:02;;;;;;;33.55;17.80;;;;;;;13.49;63.74;101651.50;5096086;28;20043;-74
2022/03/17 01:17:29;;;;;;;34.40;20.92;;;;;;;13.53;63.53;101661.44;5098144;28;20072;-72
2022/03/17 01:19:55;;;;;;;34.92;13.88;;;;;;;13.42;64.04;101655.06;5085989;28;20075;-72
2022/03/17 01:22:23;;;;;;;28.45;14.95;;;;;;;13.45;63.65;101651.50;5087981;28;20047;-73
2022/03/17 01:24:53;;;;;;;33.83;18.73;;;;;;;13.53;63.35;101649.53;5087467;28;20047;-73
2022/03/17 01:27:20;;;;;;;32.85;15.13;;;;;;;13.46;63.78;101639.19;5087846;28;20187;-74
2022/03/17 01:29:47;;;;;;;32.03;17.17;;;;;;;13.41;64.00;101631.25;5086757;28;20676;-73
2022/03/17 01:32:14;;;;;;;37.35;18.70;;;;;;;13.49;63.59;101635.63;5086940;28;20083;-73
2022/03/17 01:34:41;;;;;;;23.38;11.80;;;;;;;13.44;63.70;101626.88;5087457;28;20479;-73
2022/03/17 01:37:07;;;;;;;30.90;17.77;;;;;;;13.40;64.02;101632.41;5087351;28;20052;-73
2022/03/17 01:39:34;;;;;;;34.45;20.02;;;;;;;13.49;63.68;101632.84;5087174;28;20058;-73
2022/03/17 01:42:06;;;;;;;35.10;20.52;;;;;;;13.47;63.70;101626.91;5087173;28;20058;-75
2022/03/17 01:44:33;;;;;;;37.75;20.15;;;;;;;13.44;63.67;101619.34;5087168;28;20056;-73
2022/03/17 01:49:46;;;;;;;32.65;15.27;;;;;;;13.41;63.75;101628.47;5086506;28;20673;-72
2022/03/17 01:52:12;;;;;;;37.75;19.33;;;;;;;13.45;64.30;101626.50;5076402;28;20163;-74
2022/03/17 01:54:41;;;;;;;34.08;18.85;;;;;;;13.42;63.88;101615.34;5089278;28;20056;-73
2022/03/17 01:57:10;;;;;;;35.67;21.58;;;;;;;13.41;64.10;101622.09;5091274;28;20052;-73
2022/03/17 01:59:38;;;;;;;32.58;17.10;;;;;;;13.36;64.45;101614.16;5091252;28;20040;-73
2022/03/17 02:02:07;;;;;;;33.67;17.83;;;;;;;13.37;64.51;101613.78;5091329;28;20159;-73
2022/03/17 02:04:35;;;;;;;31.23;16.90;;;;;;;13.35;64.67;101620.91;5091752;28;20091;-73
2022/03/17 02:07:05;;;;;;;27.65;14.95;;;;;;;13.33;64.96;101612.94;5090506;28;20069;-73
2022/03/17 02:09:33;;;;;;;33.60;17.67;;;;;;;13.32;64.72;101616.94;5100177;28;20822;-72
2022/03/17 02:14:53;;;;;;;35.90;20.30;;;;;;;13.32;65.48;101619.72;5093265;28;20048;-72
2022/03/17 02:17:22;;;;;;;38.88;20.20;;;;;;;13.33;64.86;101621.28;5090604;28;20097;-74
2022/03/17 02:19:49;;;;;;;34.33;20.45;;;;;;;13.29;64.98;101619.72;5093131;28;20047;-73
2022/03/17 02:22:19;;;;;;;34.33;18.60;;;;;;;13.23;65.41;101619.28;5091617;28;20048;-73
2022/03/17 02:27:45;;;;;;;32.75;18.60;;;;;;;13.27;65.13;101608.19;5090101;28;20048;-74
2022/03/17 02:30:14;;;;;;;36.50;20.80;;;;;;;13.29;65.25;101612.16;5093825;28;20509;-74
2022/03/17 02:32:42;;;;;;;33.42;19.27;;;;;;;13.26;65.88;101612.94;5093091;28;20058;-74
2022/03/17 02:35:13;;;;;;;35.72;18.05;;;;;;;13.21;66.02;101599.44;5090664;28;20082;-73
2022/03/17 02:37:40;;;;;;;36.28;20.65;;;;;;;13.25;66.04;101613.34;5090814;28;20055;-74
2022/03/17 02:40:10;;;;;;;17.42;7.10;;;;;;;13.17;66.71;101614.50;5089119;28;20044;-74
2022/03/17 02:42:38;;;;;;;26.95;13.65;;;;;;;13.19;66.08;101603.81;5090485;28;20083;-73
2022/03/17 02:45:07;;;;;;;31.52;18.67;;;;;;;13.21;66.09;101599.44;5089557;28;20075;-74
2022/03/17 02:47:34;;;;;;;34.42;17.63;;;;;;;13.16;66.45;101605.38;5089952;28;20058;-73
2022/03/17 02:50:00;;;;;;;27.83;13.90;;;;;;;13.19;66.16;101607.38;5068569;28;20044;-74
2022/03/17 02:52:28;;;;;;;31.85;16.52;;;;;;;13.24;66.47;101606.19;5089182;28;20109;-73
2022/03/17 02:54:56;;;;;;;35.53;20.27;;;;;;;13.24;66.22;101607.00;5089719;28;20091;-74
2022/03/17 02:57:22;;;;;;;32.78;17.27;;;;;;;13.21;66.44;101601.41;5090586;28;20151;-73
2022/03/17 02:59:51;;;;;;;27.20;13.18;;;;;;;13.18;66.58;101602.19;5088222;28;20052;-74
2022/03/17 03:02:19;;;;;;;32.17;17.58;;;;;;;13.23;66.38;101602.59;5090002;28;20052;-73
2022/03/17 03:04:46;;;;;;;33.88;17.88;;;;;;;13.19;66.54;101598.25;5088706;28;20520;-73
2022/03/17 03:07:12;;;;;;;39.72;21.58;;;;;;;13.19;66.49;101604.59;5090125;28;20729;-72
2022/03/17 03:09:39;;;;;;;30.50;16.58;;;;;;;13.14;66.83;101601.41;5092285;28;20044;-74
2022/03/17 03:12:06;;;;;;;35.17;18.60;;;;;;;13.17;67.18;101609.75;5088551;28;20380;-74
2022/03/17 03:14:34;;;;;;;33.60;18.60;;;;;;;13.24;67.06;101612.56;5095559;28;20048;-74
2022/03/17 03:17:00;;;;;;;32.28;15.82;;;;;;;13.18;67.20;101616.09;5090295;28;20087;-73
2022/03/17 03:19:27;;;;;;;37.53;22.13;;;;;;;13.24;67.05;101612.56;5088891;28;20052;-75
2022/03/17 03:21:54;;;;;;;36.28;20.85;;;;;;;13.18;67.32;101614.13;5088180;28;20135;-73
2022/03/17 03:24:21;;;;;;;37.80;21.20;;;;;;;13.14;67.32;101612.53;5090054;28;20079;-72
2022/03/17 03:26:47;;;;;;;37.03;19.75;;;;;;;13.15;67.44;101622.44;5089259;28;20138;-72
2022/03/17 03:29:21;;;;;;;40.88;21.77;;;;;;;13.15;67.97;101634.34;5089497;28;20056;-73
2022/03/17 03:31:52;;;;;;;20.60;10.10;;;;;;;13.09;68.05;101635.16;5093839;28;20082;-73
2022/03/17 03:34:20;;;;;;;37.00;20.73;;;;;;;13.16;68.03;101635.16;5088285;28;20052;-72
2022/03/17 03:39:34;;;;;;;35.85;19.23;;;;;;;13.10;68.70;101647.84;5089088;28;20044;-73
2022/03/17 03:42:02;;;;;;;36.13;17.58;;;;;;;13.06;68.80;101642.25;5089036;28;20044;-74
2022/03/17 03:44:29;;;;;;;39.90;18.35;;;;;;;13.10;68.77;101648.66;5089003;28;20055;-73
2022/03/17 03:46:55;;;;;;;36.67;21.50;;;;;;;13.07;68.68;101641.88;5089276;28;20084;-73
2022/03/17 03:49:22;;;;;;;37.00;20.83;;;;;;;13.07;69.03;101640.28;5088757;28;20758;-75
2022/03/17 03:51:49;;;;;;;35.10;19.50;;;;;;;13.04;69.35;101644.66;5088527;28;20059;-73
2022/03/17 03:54:17;;;;;;;34.92;20.58;;;;;;;13.04;69.31;101655.75;5089255;28;20058;-73
2022/03/17 03:56:48;;;;;;;37.20;22.23;;;;;;;13.05;69.24;101662.91;5088893;28;20067;-73
2022/03/17 03:59:20;;;;;;;36.80;20.42;;;;;;;12.99;70.07;101670.03;5088986;28;20054;-73
2022/03/17 04:01:54;;;;;;;33.63;18.73;;;;;;;12.99;70.37;101675.56;5085081;28;20139;-73
2022/03/17 04:04:22;;;;;;;34.50;18.85;;;;;;;13.00;70.40;101682.75;5087314;28;20051;-74
2022/03/17 04:06:50;;;;;;;35.80;19.50;;;;;;;13.00;70.33;101682.75;5088830;28;20139;-76
2022/03/17 04:09:20;;;;;;;35.70;20.00;;;;;;;13.02;70.67;101681.16;5098508;28;20485;-75
2022/03/17 04:11:47;;;;;;;35.28;16.90;;;;;;;12.98;70.86;101687.84;5086810;28;20078;-72
2022/03/17 04:14:14;;;;;;;37.53;17.73;;;;;;;12.98;71.05;101690.63;5086904;28;20059;-74
2022/03/17 04:16:41;;;;;;;33.92;19.38;;;;;;;13.03;71.13;101687.53;5088451;28;20054;-73
2022/03/17 04:19:09;;;;;;;15.80;7.93;;;;;;;12.99;71.86;101700.56;5088353;28;20044;-73
2022/03/17 04:21:36;;;;;;;35.42;18.50;;;;;;;13.07;71.84;101705.78;5087695;28;20138;-76
2022/03/17 04:24:03;;;;;;;22.00;10.18;;;;;;;13.02;71.88;101700.59;5088716;28;20577;-72
2022/03/17 04:26:30;;;;;;;35.80;18.67;;;;;;;13.11;72.40;101716.13;5088042;28;20052;-75
2022/03/17 04:28:56;;;;;;;38.22;21.48;;;;;;;13.13;72.58;101708.19;5086933;28;20052;-72
2022/03/17 04:31:23;;;;;;;39.13;21.65;;;;;;;13.10;73.07;101706.19;5091069;28;20205;-73
2022/03/17 04:33:51;;;;;;;16.75;8.07;;;;;;;13.06;73.21;101708.16;5088109;28;20081;-76
2022/03/17 04:36:18;;;;;;;36.22;20.85;;;;;;;13.12;72.88;101714.94;5088242;28;20086;-73
2022/03/17 04:38:45;;;;;;;35.80;18.60;;;;;;;13.10;73.53;101732.00;5088249;28;20079;-73
2022/03/17 04:41:13;;;;;;;36.92;20.27;;;;;;;13.06;73.54;101733.16;5087000;28;20603;-73
2022/03/17 04:43:40;;;;;;;37.58;19.83;;;;;;;13.04;73.98;101728.00;5088264;28;20054;-73
2022/03/17 04:46:07;;;;;;;38.05;20.35;;;;;;;13.05;74.19;101735.13;5088304;28;20113;-73
2022/03/17 04:48:35;;;;;;;39.88;21.63;;;;;;;13.03;74.19;101727.19;5087655;28;20134;-75
2022/03/17 04:51:02;;;;;;;33.13;15.25;;;;;;;13.03;74.61;101746.66;5088056;28;20062;-74
2022/03/17 04:53:32;;;;;;;24.77;12.02;;;;;;;13.03;74.73;101743.88;5088714;28;20044;-72
2022/03/17 04:56:05;;;;;;;23.27;11.65;;;;;;;12.96;75.74;101759.66;5086240;28;20690;-73
2022/03/17 04:58:33;;;;;;;37.15;19.48;;;;;;;13.00;77.11;101758.53;5088427;28;20051;-72
2022/03/17 05:01:00;;;;;;;27.90;13.40;;;;;;;12.91;78.28;101769.19;5087252;28;20500;-73
2022/03/17 05:03:27;;;;;;;37.60;19.52;;;;;;;12.95;79.85;101767.22;5086670;28;20441;-73
2022/03/17 05:05:54;;;;;;;26.23;13.48;;;;;;;12.91;80.59;101779.50;5086682;28;20504;-73
2022/03/17 05:08:22;;;;;;;41.42;21.77;;;;;;;12.86;81.77;101777.09;5096359;28;20504;-73
2022/03/17 05:10:52;;;;;;;40.22;20.17;;;;;;;12.82;84.16;101787.34;5083854;28;20520;-73
2022/03/17 05:13:20;;;;;;;31.45;15.38;;;;;;;12.74;87.33;101789.31;5087186;28;20428;-73
2022/03/17 05:15:47;;;;;;;27.13;13.35;;;;;;;12.65;90.40;101802.72;5087853;28;20055;-73
2022/03/17 05:18:14;;;;;;;29.48;15.35;;;;;;;12.69;91.51;101799.97;5088091;28;20120;-75
2022/03/17 05:20:41;;;;;;;26.55;11.80;;;;;;;12.55;95.64;101814.53;5087762;28;20046;-73
2022/03/17 05:23:10;;;;;;;27.55;11.05;;;;;;;12.54;99.72;101815.72;5087347;28;20158;-73
2022/03/17 05:25:39;;;;;;;37.42;20.83;;;;;;;12.41;100.00;101822.75;5087028;28;20116;-73
2022/03/17 05:28:10;;;;;;;45.90;23.08;;;;;;;12.34;100.00;101821.88;5087705;28;20685;-73
2022/03/17 05:30:38;;;;;;;30.42;14.60;;;;;;;12.14;100.00;101831.59;5092456;28;20048;-74
2022/03/17 05:33:06;;;;;;;36.22;18.67;;;;;;;12.04;100.00;101832.28;5087146;28;20056;-74
2022/03/17 05:35:33;;;;;;;45.60;22.40;;;;;;;11.95;100.00;101837.34;5088112;28;20134;-74
2022/03/17 05:38:03;;;;;;;44.95;23.55;;;;;;;11.84;100.00;101850.28;5087449;28;20527;-73
2022/03/17 05:40:30;;;;;;;49.13;24.52;;;;;;;11.73;100.00;101858.47;5088137;28;20055;-72
2022/03/17 05:42:59;;;;;;;33.88;15.25;;;;;;;11.58;100.00;101867.75;5085630;28;20064;-75
2022/03/17 05:45:27;;;;;;;40.13;19.83;;;;;;;11.51;100.00;101867.66;5087494;28;20052;-73
2022/03/17 05:47:56;;;;;;;50.60;23.58;;;;;;;11.49;100.00;101874.75;5087182;28;20097;-74
2022/03/17 05:50:25;;;;;;;30.80;13.15;;;;;;;11.40;100.00;101885.31;5086717;28;20044;-73
2022/03/17 05:52:52;;;;;;;48.85;25.38;;;;;;;11.40;100.00;101893.63;5087068;28;20074;-72
2022/03/17 05:55:21;;;;;;;61.15;30.73;;;;;;;11.38;100.00;101898.75;5087515;28;20052;-73
2022/03/17 05:57:49;;;;;;;49.53;26.02;;;;;;;11.32;100.00;101897.47;5087247;28;20102;-72
2022/03/17 06:00:18;;;;;;;32.65;15.60;;;;;;;11.19;100.00;101898.88;5084887;28;20139;-73
2022/03/17 06:02:45;;;;;;;52.10;26.83;;;;;;;11.23;100.00;101902.47;5087261;28;20056;-73
2022/03/17 06:05:12;;;;;;;34.00;15.95;;;;;;;11.14;100.00;101913.81;5086497;28;20589;-73
2022/03/17 06:07:46;;;;;;;40.60;20.35;;;;;;;11.02;100.00;101914.06;5093695;28;20075;-73
2022/03/17 06:10:15;;;;;;;53.95;29.02;;;;;;;11.04;100.00;101922.00;5089610;28;20481;-73
2022/03/17 06:12:44;;;;;;;18.27;9.40;;;;;;;10.96;100.00;101936.88;5087278;28;20048;-72
2022/03/17 06:15:11;;;;;;;56.80;26.45;;;;;;;10.91;100.00;101940.78;5084912;28;20083;-74
2022/03/17 06:17:37;;;;;;;37.22;18.05;;;;;;;10.83;100.00;101952.09;5087723;28;20566;-73
2022/03/17 06:20:05;;;;;;;22.33;10.48;;;;;;;10.80;100.00;101952.84;5087212;28;20101;-73
2022/03/17 06:22:32;;;;;;;33.00;15.35;;;;;;;10.74;100.00;101963.41;5086811;28;20131;-72
2022/03/17 06:24:58;;;;;;;49.08;22.38;;;;;;;10.68;100.00;101977.91;5087744;28;20052;-74
2022/03/17 06:27:26;;;;;;;30.02;15.13;;;;;;;10.67;100.00;101976.31;5087610;28;20056;-72
2022/03/17 06:29:52;;;;;;;48.45;25.02;;;;;;;10.65;100.00;101995.25;5085372;28;20159;-74
2022/03/17 06:32:19;;;;;;;24.92;12.30;;;;;;;10.66;100.00;101991.34;5092819;28;20131;-73
2022/03/17 06:34:45;;;;;;;66.90;33.92;;;;;;;10.62;100.00;102007.88;5088043;28;20056;-73
2022/03/17 06:37:12;;;;;;;83.03;43.08;;;;;;;10.65;100.00;102023.75;5086570;28;20052;-74
2022/03/17 06:39:38;;;;;;;50.58;24.58;;;;;;;10.68;100.00;102039.63;5090893;28;20532;-73
2022/03/17 06:42:05;;;;;;;38.13;20.67;;;;;;;10.67;100.00;102040.81;5090354;28;20054;-75
2022/03/17 06:44:32;;;;;;;39.33;19.90;;;;;;;10.69;100.00;102049.53;5092334;28;20048;-74
2022/03/17 06:46:59;;;;;;;32.78;17.58;;;;;;;10.64;100.00;102060.09;5091604;27;20101;-74
2022/03/17 06:49:25;;;;;;;32.90;17.02;;;;;;;10.63;100.00;102070.34;5090111;28;20062;-74
2022/03/17 06:51:52;;;;;;;31.38;16.52;;;;;;;10.53;100.00;102069.00;5089424;28;20080;-73
2022/03/17 06:54:18;;;;;;;29.25;11.18;;;;;;;10.48;100.00;102076.78;5091008;28;20093;-74
2022/03/17 06:56:45;;;;;;;25.40;11.35;;;;;;;10.51;100.00;102095.44;5090250;28;20052;-73
2022/03/17 06:59:11;;;;;;;16.90;6.97;;;;;;;10.36;100.00;102088.78;5088906;28;20508;-75
2022/03/17 07:01:40;;;;;;;34.00;16.40;;;;;;;10.43;100.00;102100.00;5090923;28;20055;-75
2022/03/17 07:04:07;;;;;;;32.08;15.65;;;;;;;10.34;100.00;102104.16;5089487;28;20724;-74
2022/03/17 07:06:34;;;;;;;31.45;16.10;;;;;;;10.33;100.00;102111.66;5090282;28;20512;-74
2022/03/17 07:09:00;;;;;;;32.08;15.73;;;;;;;10.22;100.00;102107.03;5092519;28;20531;-75
2022/03/17 07:11:27;;;;;;;29.95;13.07;;;;;;;10.23;100.00;102117.75;5089764;28;20485;-73
2022/03/17 07:13:53;;;;;;;28.98;13.32;;;;;;;10.16;100.00;102123.13;5090182;28;20478;-75
2022/03/17 07:16:20;;;;;;;33.33;15.50;;;;;;;10.10;100.00;102126.53;5089712;28;20135;-74
2022/03/17 07:18:49;;;;;;;20.30;8.35;;;;;;;10.11;100.00;102128.94;5093821;28;20527;-74
2022/03/17 07:21:16;;;;;;;25.33;11.27;;;;;;;9.87;100.00;102148.47;5088613;28;20040;-75
2022/03/17 07:23:43;;;;;;;32.30;16.00;;;;;;;10.02;100.00;102138.53;5088760;28;20893;-74
2022/03/17 07:26:09;;;;;;;31.70;16.52;;;;;;;10.02;100.00;102161.47;5089958;28;20062;-74
2022/03/17 07:28:36;;;;;;;20.42;7.97;;;;;;;9.87;100.00;102162.31;5089259;28;20136;-74
2022/03/17 07:31:02;;;;;;;37.08;17.20;;;;;;;9.99;100.00;102159.44;5089204;28;20048;-72
2022/03/17 07:33:32;;;;;;;34.70;14.32;;;;;;;9.95;100.00;102166.03;5089724;28;20059;-74
2022/03/17 07:35:58;;;;;;;36.30;16.95;;;;;;;10.03;100.00;102171.38;5088630;28;20079;-74
2022/03/17 07:38:25;;;;;;;18.80;7.63;;;;;;;9.92;100.00;102186.09;5088819;28;20520;-74
2022/03/17 07:40:51;;;;;;;35.22;16.00;;;;;;;9.95;100.00;102186.19;5087377;28;20048;-73
2022/03/17 07:43:18;;;;;;;33.70;14.60;;;;;;;9.94;100.00;102184.59;5089180;28;20880;-72
2022/03/17 07:45:44;;;;;;;23.77;8.90;;;;;;;10.01;100.00;102193.06;5090245;28;20135;-73
2022/03/17 07:48:11;;;;;;;23.80;10.00;;;;;;;9.87;100.00;102192.72;5088499;28;20171;-72
2022/03/17 07:50:37;;;;;;;24.90;9.18;;;;;;;9.87;100.00;102212.06;5088484;28;20560;-74
2022/03/17 07:53:04;;;;;;;34.35;15.70;;;;;;;9.91;100.00;102212.97;5088217;28;20098;-75
2022/03/17 07:55:30;;;;;;;23.08;9.65;;;;;;;9.80;100.00;102222.13;5088241;28;20083;-73
2022/03/17 07:57:57;;;;;;;30.88;14.07;;;;;;;9.81;100.00;102220.97;5084070;28;20080;-72
2022/03/17 08:00:24;;;;;;;31.88;12.02;;;;;;;9.87;100.00;102231.44;5087737;28;20048;-76
2022/03/17 08:02:51;;;;;;;28.30;11.35;;;;;;;9.82;100.00;102239.97;5087302;28;20530;-73
2022/03/17 08:05:18;;;;;;;20.90;9.45;;;;;;;9.86;100.00;102240.84;5088611;28;20075;-72
2022/03/17 08:07:44;;;;;;;28.55;8.95;;;;;;;9.90;100.00;102252.03;5090980;28;20127;-75
2022/03/17 08:10:11;;;;;;;14.07;6.20;;;;;;;9.93;100.00;102265.94;5091182;28;20051;-73
2022/03/17 08:12:43;;;;;;;16.02;5.22;;;;;;;9.86;100.00;102271.28;5086929;28;20139;-72
2022/03/17 08:15:12;;;;;;;15.70;5.85;;;;;;;9.76;100.00;102269.03;5089912;28;20517;-74
2022/03/17 08:17:39;;;;;;;20.00;7.50;;;;;;;9.82;100.00;102269.59;5087912;28;20814;-73
2022/03/17 08:20:06;;;;;;;18.33;7.55;;;;;;;9.81;100.00;102273.50;5088953;28;20527;-73
2022/03/17 08:22:34;;;;;;;21.02;7.22;;;;;;;9.73;100.00;102291.06;5082587;28;20054;-74
2022/03/17 08:25:01;;;;;;;23.65;8.48;;;;;;;9.78;100.00;102288.84;5090911;28;20052;-74
2022/03/17 08:27:27;;;;;;;21.05;6.32;;;;;;;9.69;100.00;102293.72;5088721;28;20039;-71
2022/03/17 08:29:54;;;;;;;17.35;7.30;;;;;;;9.72;100.00;102300.53;5089466;28;20166;-73
2022/03/17 08:32:20;;;;;;;18.25;6.90;;;;;;;9.69;100.00;102299.25;5090468;28;20131;-73
2022/03/17 08:34:47;;;;;;;14.27;5.38;;;;;;;9.70;100.00;102305.59;5088971;28;20131;-73
2022/03/17 08:37:13;;;;;;;16.55;4.97;;;;;;;9.62;100.00;102301.81;5087974;28;20056;-72
2022/03/17 08:39:40;;;;;;;17.73;6.60;;;;;;;9.61;100.00;102319.56;5087694;28;20056;-72
2022/03/17 08:42:07;;;;;;;16.50;5.93;;;;;;;9.68;100.00;102333.56;5087498;28;20519;-72
2022/03/17 08:44:33;;;;;;;6.68;2.72;;;;;;;9.55;100.00;102331.22;5088039;28;20048;-73
2022/03/17 08:49:45;;;;;;;16.55;5.30;;;;;;;9.64;100.00;102332.69;5090290;28;20127;-72
2022/03/17 08:52:11;;;;;;;18.35;5.93;;;;;;;9.62;100.00;102340.50;5080833;28;20067;-74
2022/03/17 08:54:38;;;;;;;11.13;4.03;;;;;;;9.55;100.00;102348.59;5083340;28;20056;-72
2022/03/17 08:57:05;;;;;;;13.95;4.90;;;;;;;9.64;100.00;102349.25;5084877;28;20054;-72
2022/03/17 08:59:35;;;;;;;11.13;3.83;;;;;;;9.64;100.00;102351.22;5084300;28;20087;-76
2022/03/17 09:02:05;;;;;;;15.95;5.55;;;;;;;9.70;100.00;102364.44;5081042;28;20142;-72
2022/03/17 09:04:33;;;;;;;16.25;4.43;;;;;;;9.69;100.00;102365.59;5078560;28;20052;-73
2022/03/17 09:07:01;;;;;;;15.77;4.80;;;;;;;9.79;100.00;102376.13;5074020;28;20074;-73
2022/03/17 09:09:30;;;;;;;12.73;5.13;;;;;;;9.81;100.00;102386.84;5094168;28;20075;-75
2022/03/17 09:11:56;;;;;;;19.48;4.68;;;;;;;9.88;100.00;102375.97;5077355;28;20050;-73
2022/03/17 09:14:23;;;;;;;13.85;4.35;;;;;;;9.99;100.00;102385.41;5083270;28;20144;-73
2022/03/17 09:16:50;;;;;;;7.10;2.95;;;;;;;10.02;100.00;102379.13;5081918;28;20134;-73
2022/03/17 09:19:19;;;;;;;8.30;3.22;;;;;;;10.14;100.00;102387.41;5084579;28;20044;-75
2022/03/17 09:21:46;;;;;;;15.73;4.38;;;;;;;10.17;100.00;102398.56;5079005;28;20052;-73
2022/03/17 09:24:13;;;;;;;8.50;2.97;;;;;;;10.17;100.00;102397.78;5078537;28;20052;-74
2022/03/17 09:26:39;;;;;;;13.85;3.88;;;;;;;10.19;100.00;102400.97;5075219;28;20548;-74
2022/03/17 09:29:06;;;;;;;5.82;1.85;;;;;;;10.23;100.00;102410.97;5078827;28;20066;-72
2022/03/17 09:31:33;;;;;;;17.25;3.70;;;;;;;10.25;100.00;102421.69;5085203;28;20131;-75
2022/03/17 09:34:00;;;;;;;9.05;3.10;;;;;;;10.25;100.00;102421.69;5087624;28;20052;-73
2022/03/17 09:36:26;;;;;;;6.68;2.53;;;;;;;10.19;100.00;102420.34;5082932;28;20148;-76
2022/03/17 09:41:38;;;;;;;11.70;3.50;;;;;;;10.31;100.00;102428.59;5086412;28;20102;-73
2022/03/17 09:44:05;;;;;;;16.98;4.10;;;;;;;10.33;100.00;102434.59;5086112;28;20385;-74
2022/03/17 09:46:32;;;;;;;9.80;2.95;;;;;;;10.29;100.00;102437.25;5086887;28;20076;-74
2022/03/17 09:48:59;;;;;;;16.05;4.40;;;;;;;10.31;100.00;102437.69;5086338;28;20051;-73
2022/03/17 09:51:26;;;;;;;12.35;3.15;;;;;;;10.29;100.00;102448.31;5083389;28;20505;-77
2022/03/17 09:53:59;;;;;;;18.10;4.57;;;;;;;10.30;100.00;102449.13;5087728;28;20059;-73
2022/03/17 09:56:28;;;;;;;12.73;3.58;;;;;;;10.28;100.00;102457.78;5086075;28;20580;-74
2022/03/17 09:58:58;;;;;;;13.32;4.28;;;;;;;10.30;100.00;102460.19;5087318;28;20117;-73
2022/03/17 10:01:26;;;;;;;16.35;4.35;;;;;;;10.32;100.00;102468.91;5082992;28;20047;-77
2022/03/17 10:04:00;;;;;;;12.32;3.70;;;;;;;10.31;100.00;102462.59;5084428;28;20057;-74
2022/03/17 10:06:28;;;;;;;13.60;4.18;;;;;;;10.35;100.00;102471.81;5080531;28;20519;-73
2022/03/17 10:08:56;;;;;;;13.57;4.55;;;;;;;10.37;100.00;102483.31;5095694;28;20105;-74
2022/03/17 10:11:29;;;;;;;16.75;4.07;;;;;;;10.35;100.00;102479.28;5082587;28;20052;-73
2022/03/17 10:13:57;;;;;;;6.78;2.35;;;;;;;10.18;100.00;102494.25;5089535;28;20442;-75
2022/03/17 10:16:27;;;;;;;11.10;2.97;;;;;;;10.34;100.00;102500.63;5089860;28;20711;-73
2022/03/17 10:19:04;;;;;;;12.35;3.97;;;;;;;10.39;100.00;102496.78;5088274;28;20048;-73
2022/03/17 10:21:32;;;;;;;13.07;4.35;;;;;;;10.40;100.00;102501.19;5087007;28;20125;-74
2022/03/17 10:24:02;;;;;;;17.52;4.45;;;;;;;10.39;100.00;102513.41;5086139;28;20056;-76
2022/03/17 10:26:32;;;;;;;11.45;3.85;;;;;;;10.42;100.00;102513.50;5090513;28;20142;-74
2022/03/17 10:29:12;;;;;;;14.23;3.47;;;;;;;10.44;100.00;102525.00;5086767;28;20139;-74
2022/03/17 10:32:06;;;;;;;9.57;2.28;;;;;;;10.44;100.00;102533.31;5085786;28;20083;-73
2022/03/17 10:34:46;;;;;;;14.00;3.63;;;;;;;10.45;100.00;102540.47;5090919;28;20101;-75
2022/03/17 10:37:15;;;;;;;14.93;3.40;;;;;;;10.55;100.00;102539.16;5087255;28;20059;-74
2022/03/17 10:39:47;;;;;;;10.07;2.95;;;;;;;10.57;100.00;102550.69;5089428;28;20051;-74
2022/03/17 10:42:25;;;;;;;4.78;1.00;;;;;;;10.60;100.00;102552.75;5086878;28;20048;-72
2022/03/17 10:45:05;;;;;;;17.25;3.60;;;;;;;10.53;100.00;102558.06;5089070;28;20504;-73
2022/03/17 10:47:40;;;;;;;10.93;2.85;;;;;;;10.59;100.00;102561.41;5084911;28;20062;-74
2022/03/17 10:50:09;;;;;;;11.02;2.80;;;;;;;10.68;100.00;102562.03;5088262;28;20040;-74
2022/03/17 10:52:48;;;;;;;18.88;3.33;;;;;;;10.69;100.00;102571.97;5084294;28;20040;-75
2022/03/17 10:55:19;;;;;;;13.73;3.30;;;;;;;10.71;100.00;102575.19;5089096;28;20048;-73
2022/03/17 10:57:45;;;;;;;11.15;2.28;;;;;;;10.68;100.00;102570.34;5089976;28;20055;-73
2022/03/17 11:00:20;;;;;;;5.97;1.90;;;;;;;10.73;100.00;102586.72;5088726;28;20054;-75
2022/03/17 11:02:57;;;;;;;;;;;;;;;10.75;100.00;102581.63;5082714;28;20495;-73
2022/03/17 11:05:27;;;;;;;4.07;1.33;;;;;;;10.63;100.00;102584.47;5089457;28;19924;-74
2022/03/17 11:07:57;;;;;;;12.57;2.38;;;;;;;10.69;100.00;102597.69;5092308;28;20051;-75
2022/03/17 11:10:25;;;;;;;8.48;2.13;;;;;;;10.76;100.00;102595.13;5091507;28;20051;-73
2022/03/17 11:12:51;;;;;;;9.70;1.60;;;;;;;10.69;97.95;102594.91;5088685;28;20048;-73
2022/03/17 11:15:28;;;;;;;8.52;1.85;;;;;;;10.68;97.33;102592.50;5088385;28;20074;-72
2022/03/17 11:18:02;;;;;;;12.02;1.98;;;;;;;10.81;97.96;102605.13;5089037;28;20420;-75
2022/03/17 11:20:30;;;;;;;12.85;2.47;;;;;;;10.88;96.25;102602.56;5086714;28;20603;-76
2022/03/17 11:23:22;;;;;;;15.88;2.28;;;;;;;11.03;96.74;102601.81;5084339;28;20497;-73
2022/03/17 11:25:53;;;;;;;7.22;1.50;;;;;;;11.05;95.94;102613.31;5077896;28;20048;-73
2022/03/17 11:28:32;;;;;;;8.30;2.13;;;;;;;11.08;94.10;102618.16;5086222;28;20044;-75
2022/03/17 11:31:04;;;;;;;15.43;2.42;;;;;;;11.13;95.04;102626.22;5089876;28;20055;-72
2022/03/17 11:33:32;;;;;;;12.70;2.35;;;;;;;11.06;93.09;102612.97;5089545;28;20071;-74